CheckWX is a tool to help pilots better visualize weather data.  It is not intended as a substitute for an official pre-flight weather briefing.

22:13:19 UTC

54J METAR
Defuniak Springs Airport
Defuniak Springs, Florida, USA
Current

18 mins ago

K54J 252155Z AUTO 22009G15KT 200V280 10SM CLR 23/14 A3000 RMK AO2 LTG DSNT N T02300143
Observed
Mar-25 @ 21:55 UTC
Wind
  • 220° at 9 KTS
  • Gusting to 15 KTS
Visibility
10 SM
Flight Rules
VFR
Cloud Levels
  • Clear skies
Temperature
23°C / 73°F
Dewpoint
14°C / 57°F
Humidity
57%
Altimeter
30" Hg
Pressure
1015.92 hPa
Previous

38 mins ago

K54J 252135Z AUTO 20008G17KT 180V240 10SM CLR 23/14 A3000 RMK AO2 T02330139
Observed
Mar-25 @ 21:35 UTC
Wind
  • 200° at 8 KTS
  • Gusting to 17 KTS
Visibility
10 SM
Flight Rules
VFR
Cloud Levels
  • Clear skies
Temperature
23°C / 73°F
Dewpoint
14°C / 57°F
Humidity
57%
Altimeter
30" Hg
Pressure
1015.92 hPa
Previous

58 mins ago

K54J 252115Z AUTO 20010G17KT 170V270 10SM CLR 24/14 A3000 RMK AO2 T02350139
Observed
Mar-25 @ 21:15 UTC
Wind
  • 200° at 10 KTS
  • Gusting to 17 KTS
Visibility
10 SM
Flight Rules
VFR
Cloud Levels
  • Clear skies
Temperature
24°C / 75°F
Dewpoint
14°C / 57°F
Humidity
54%
Altimeter
30" Hg
Pressure
1015.92 hPa